Vaduz, Switzerland

5:33 PM CET on February 21, 2017 (GMT +0100)
Solarisweg | | Change Station

Elev 1502 ft 47.13 °N, 9.52 °E | Updated 1 minute ago

Rain
Rain
49.1 °F
Feels Like 49 °F
N
1.9
Wind Variable Wind from ESE
Gusts 3.7 mph

Today
High -- | Low -- °F
--% Chance of Precip.
Yesterday
High -- | Low -- °F
Precip. -- in
Pressure 30.09 in
Visibility 6.2 miles
Clouds Mostly Cloudy 2600 ft
Windchill 49 °F
Dew Point 43 °F
Humidity 80%
Rainfall 0.08 in
Snow Depth Not available.
7:16 AM 5:55 PM
Waning Crescent, 24% visible
METAR LSZR 211620Z 09007KT 9999 VCSH BKN026 09/08 Q1019 NOSIG RMK L
Pressure 30.09 in
Visibility 6.2 miles
Clouds Mostly Cloudy 2600 ft
Windchill 49 °F
Dew Point 43 °F
Humidity 80%
Rainfall 0.08 in
Snow Depth Not available.
7:16 AM 5:55 PM
Waning Crescent, 24% visible
METAR LSZR 211620Z 09007KT 9999 VCSH BKN026 09/08 Q1019 NOSIG RMK L

Get Your Daily Forecast Email!

Thanks for signing up!

Be on the lookout for a verification email in your inbox.

You'll start receiving the daily forecast at 8 AM.

×

10-Day Weather Forecast

×

Almanac

Astronomy

Feb. 21, 2017 Rise Set
Actual Time
Civil Twilight
Nautical Twilight
Astronomical Twilight
Moon
Length of Visible Light
Length of Day
Tomorrow will be .
, % of the Moon is Illuminated

Today's Extremes

Country Highs Country Lows

Community

WunderPhotos

Upload Photos

1,962,540 photos uploaded!

WunderBlog® & News

Nearby

Air Quality

  Air Quality AQ Index Pollutant
Not available.

Snow Depth

Station Depth Elevation

Earthquake Activity

City Distance Mag. Time & Date
Minimum magnitude displayed is 2.5.

Coastal Water Temperatures

Place Temperature

Stations

Nearby Weather Stations

Station Location Temp. Windchill Dew Point Humidity Wind Precip. Elev Updated Type